createdAt,value
2019-05-06T00:01:53.988Z,85.93
2019-05-06T00:04:24.734Z,86.34
2019-05-06T00:06:54.814Z,86.39
2019-05-06T00:09:24.486Z,86.61
2019-05-06T00:11:54.689Z,86.58
2019-05-06T00:14:23.790Z,86.61
2019-05-06T00:16:55.121Z,85.51
2019-05-06T00:19:28.853Z,85.64
2019-05-06T00:21:57.870Z,85.20
2019-05-06T00:24:31.077Z,84.94
2019-05-06T00:27:24.729Z,83.89
2019-05-06T00:29:56.142Z,84.18
2019-05-06T00:32:25.457Z,85.37
2019-05-06T00:34:56.052Z,86.58
2019-05-06T00:37:26.553Z,87.45
2019-05-06T00:40:09.297Z,87.78
2019-05-06T00:42:44.502Z,87.97
2019-05-06T00:45:13.676Z,87.11
2019-05-06T00:47:44.408Z,86.73
2019-05-06T00:50:15.191Z,87.41
2019-05-06T00:52:47.525Z,88.06
2019-05-06T00:55:16.596Z,88.84
2019-05-06T00:57:50.850Z,89.07
2019-05-06T01:00:25.123Z,88.95
2019-05-06T01:02:54.458Z,88.45
2019-05-06T01:05:24.436Z,88.00
2019-05-06T01:07:54.938Z,87.66
2019-05-06T01:10:24.782Z,88.12
2019-05-06T01:13:08.393Z,87.92
2019-05-06T01:15:38.534Z,88.20
2019-05-06T01:18:07.537Z,87.96
2019-05-06T01:20:36.578Z,87.82
2019-05-06T01:23:05.624Z,87.37
2019-05-06T01:25:34.820Z,86.66
2019-05-06T01:28:04.523Z,85.87
2019-05-06T01:30:35.004Z,86.30
2019-05-06T01:33:06.730Z,86.58
2019-05-06T01:35:37.896Z,86.92
2019-05-06T01:38:30.204Z,87.14
2019-05-06T01:41:24.254Z,87.25
2019-05-06T01:43:52.217Z,85.98
2019-05-06T01:46:24.205Z,86.09
2019-05-06T01:48:54.770Z,86.67
2019-05-06T01:51:26.229Z,86.56
2019-05-06T01:53:55.628Z,86.47
2019-05-06T01:56:24.724Z,86.63
2019-05-06T01:58:54.514Z,86.63
2019-05-06T02:01:25.353Z,86.25
2019-05-06T02:03:54.553Z,86.45
2019-05-06T02:06:24.937Z,86.19
2019-05-06T02:08:54.181Z,85.46
2019-05-06T02:11:24.125Z,84.00
2019-05-06T02:13:54.135Z,84.46
2019-05-06T02:16:25.453Z,84.94
2019-05-06T02:18:56.862Z,85.68
2019-05-06T02:21:43.939Z,85.87
2019-05-06T02:24:18.808Z,85.47
2019-05-06T02:26:49.641Z,86.11
2019-05-06T02:29:21.023Z,85.64
2019-05-06T02:32:20.832Z,85.76
2019-05-06T02:34:48.178Z,86.02
2019-05-06T02:37:25.423Z,86.31
2019-05-06T02:39:53.818Z,86.74
2019-05-06T02:42:23.956Z,88.25
2019-05-06T02:44:54.355Z,87.62
2019-05-06T02:47:53.763Z,87.05
2019-05-06T02:50:28.973Z,86.61
2019-05-06T02:52:58.025Z,86.58
2019-05-06T02:55:27.427Z,85.39
2019-05-06T02:57:56.856Z,86.38
2019-05-06T03:00:26.277Z,86.38
2019-05-06T03:02:55.288Z,86.36
2019-05-06T03:05:24.388Z,86.43
2019-05-06T03:07:57.019Z,86.05
2019-05-06T03:10:27.673Z,86.22
2019-05-06T03:12:57.173Z,85.28
2019-05-06T03:15:26.225Z,86.30
2019-05-06T03:17:55.622Z,85.24
2019-05-06T03:20:43.764Z,85.45
2019-05-06T03:23:14.215Z,86.11
2019-05-06T03:25:45.474Z,86.41
2019-05-06T03:28:14.564Z,87.09
2019-05-06T03:30:45.831Z,86.46
2019-05-06T03:33:50.479Z,85.61
2019-05-06T03:36:04.651Z,86.15
2019-05-06T03:38:18.928Z,85.71
2019-05-06T03:40:47.936Z,86.14
2019-05-06T03:43:16.959Z,86.43
2019-05-06T03:46:13.983Z,86.65
2019-05-06T03:48:46.678Z,86.92
2019-05-06T03:51:15.680Z,87.08
2019-05-06T03:53:48.057Z,87.25
2019-05-06T03:56:20.063Z,85.68
2019-05-06T03:58:53.335Z,83.28
2019-05-06T04:01:24.114Z,83.31
2019-05-06T04:03:57.013Z,83.32
2019-05-06T04:06:24.281Z,82.55
2019-05-06T04:08:54.335Z,81.98
2019-05-06T04:11:24.800Z,82.43
2019-05-06T04:13:54.962Z,81.09
2019-05-06T04:16:34.986Z,81.77
2019-05-06T04:19:13.080Z,81.29
2019-05-06T04:21:48.978Z,82.14
2019-05-06T04:24:49.158Z,82.22
2019-05-06T04:27:37.610Z,82.15
2019-05-06T04:30:06.961Z,83.23
2019-05-06T04:32:35.975Z,81.98
2019-05-06T04:35:06.825Z,81.77
2019-05-06T04:37:36.552Z,82.89
2019-05-06T04:40:05.689Z,85.55
2019-05-06T04:42:34.918Z,86.67
2019-05-06T04:45:04.910Z,87.70
2019-05-06T04:47:38.972Z,87.86
2019-05-06T04:50:09.176Z,87.53
2019-05-06T04:52:38.280Z,88.12
2019-05-06T04:55:13.734Z,87.31
2019-05-06T04:57:43.941Z,86.88
2019-05-06T05:00:13.155Z,86.92
2019-05-06T05:02:46.113Z,86.89
2019-05-06T05:05:14.119Z,87.36
2019-05-06T05:07:43.725Z,86.93
2019-05-06T05:10:23.308Z,87.41
2019-05-06T05:13:04.250Z,87.61
2019-05-06T05:15:46.095Z,87.13
2019-05-06T05:18:19.746Z,86.06
2019-05-06T05:20:52.792Z,86.25
2019-05-06T05:23:24.713Z,85.85
2019-05-06T05:25:53.718Z,85.76
2019-05-06T05:28:22.859Z,85.13
2019-05-06T05:30:52.253Z,84.35
2019-05-06T05:33:24.803Z,84.81
2019-05-06T05:35:53.874Z,85.83
2019-05-06T05:38:23.224Z,84.22
2019-05-06T05:40:52.638Z,85.62
2019-05-06T05:43:32.528Z,86.31
2019-05-06T05:46:02.930Z,84.80
2019-05-06T05:48:52.008Z,85.11
2019-05-06T05:51:22.248Z,86.18
2019-05-06T05:53:52.267Z,86.18
2019-05-06T05:56:24.010Z,86.23
2019-05-06T05:58:53.649Z,85.62
2019-05-06T06:01:23.484Z,85.76
2019-05-06T06:03:52.884Z,86.68
2019-05-06T06:06:23.195Z,87.09
2019-05-06T06:08:53.542Z,87.18
2019-05-06T06:11:27.545Z,86.48
2019-05-06T06:14:03.492Z,85.97
2019-05-06T06:16:49.659Z,85.58
2019-05-06T06:19:32.766Z,84.80
2019-05-06T06:22:04.510Z,85.63
2019-05-06T06:24:35.416Z,83.86
2019-05-06T06:27:04.791Z,83.87
2019-05-06T06:29:34.441Z,83.73
2019-05-06T06:32:22.948Z,83.96
2019-05-06T06:35:22.858Z,83.16
2019-05-06T06:38:02.634Z,81.68
2019-05-06T06:40:32.994Z,82.03
2019-05-06T06:43:12.413Z,80.26
2019-05-06T06:45:42.240Z,80.99
2019-05-06T06:48:13.775Z,80.46
2019-05-06T06:50:43.012Z,79.41
2019-05-06T06:53:12.549Z,79.29
2019-05-06T06:55:42.801Z,78.07
2019-05-06T06:58:27.070Z,77.84
2019-05-06T07:01:14.066Z,77.82
2019-05-06T07:04:10.406Z,77.71
2019-05-06T07:06:43.564Z,77.00
2019-05-06T07:09:12.651Z,77.27
2019-05-06T07:11:42.797Z,77.24
2019-05-06T07:14:13.791Z,77.35
2019-05-06T07:16:43.141Z,77.23
2019-05-06T07:19:14.247Z,77.75
2019-05-06T07:21:53.637Z,78.64
2019-05-06T07:24:23.127Z,78.81
2019-05-06T07:26:56.483Z,77.10
2019-05-06T07:29:26.936Z,76.90
2019-05-06T07:31:58.071Z,76.45
2019-05-06T07:34:27.443Z,77.33
2019-05-06T07:36:56.969Z,76.89
2019-05-06T07:39:26.054Z,75.83
2019-05-06T07:41:57.794Z,74.91
2019-05-06T07:44:52.928Z,75.84
2019-05-06T07:47:39.355Z,74.79
2019-05-06T07:50:08.588Z,75.53
2019-05-06T07:52:37.914Z,76.41
2019-05-06T07:55:08.787Z,75.36
2019-05-06T07:57:42.404Z,76.40
2019-05-06T08:00:12.527Z,75.20
2019-05-06T08:02:42.617Z,76.26
2019-05-06T08:05:13.032Z,75.74
2019-05-06T08:07:42.393Z,75.85
2019-05-06T08:10:13.570Z,76.13
2019-05-06T08:12:42.993Z,75.24
2019-05-06T08:15:12.703Z,75.32
2019-05-06T08:17:42.556Z,75.86
2019-05-06T08:20:13.082Z,78.50
2019-05-06T08:22:49.724Z,75.41
2019-05-06T08:25:19.079Z,75.48
2019-05-06T08:27:49.570Z,74.48
2019-05-06T08:30:19.992Z,74.86
2019-05-06T08:32:49.008Z,74.45
2019-05-06T08:35:20.123Z,73.66
2019-05-06T08:37:50.331Z,73.72
2019-05-06T08:40:20.174Z,72.95
2019-05-06T08:42:49.281Z,72.50
2019-05-06T08:45:18.329Z,73.01
2019-05-06T08:47:47.705Z,73.73
2019-05-06T08:50:36.046Z,73.80
2019-05-06T08:53:16.457Z,73.47
2019-05-06T08:55:46.439Z,71.88
2019-05-06T08:58:15.472Z,72.09
2019-05-06T09:00:50.117Z,71.68
2019-05-06T09:03:19.191Z,71.32
2019-05-06T09:05:54.161Z,70.32
2019-05-06T09:08:24.795Z,71.23
2019-05-06T09:10:54.792Z,70.17
2019-05-06T09:13:24.161Z,69.74
2019-05-06T09:15:53.418Z,69.36
2019-05-06T09:18:24.083Z,68.09
2019-05-06T09:20:54.425Z,67.00
2019-05-06T09:23:25.758Z,65.91
2019-05-06T09:25:54.720Z,66.37
2019-05-06T09:28:42.725Z,67.42
2019-05-06T09:31:24.689Z,66.12
2019-05-06T09:33:58.893Z,65.94
2019-05-06T09:36:41.142Z,64.52
2019-05-06T09:38:59.310Z,63.70
2019-05-06T09:41:28.869Z,62.58
2019-05-06T09:43:58.014Z,61.71
2019-05-06T09:46:28.329Z,60.33
2019-05-06T09:49:12.788Z,59.39
2019-05-06T09:51:42.542Z,59.70
2019-05-06T09:54:24.647Z,59.28
2019-05-06T09:57:06.263Z,56.70
2019-05-06T09:59:35.737Z,55.00
2019-05-06T10:02:05.550Z,51.29
2019-05-06T10:04:34.614Z,50.11
2019-05-06T10:07:05.949Z,49.44
2019-05-06T10:09:35.648Z,52.50
2019-05-06T10:12:07.858Z,51.43
2019-05-06T10:14:37.287Z,50.37
2019-05-06T10:17:06.852Z,51.53
2019-05-06T10:19:35.927Z,53.26
2019-05-06T10:22:06.169Z,54.98
2019-05-06T10:24:35.483Z,57.10
2019-05-06T10:27:04.916Z,57.31
2019-05-06T10:29:39.511Z,59.15
2019-05-06T10:32:14.734Z,59.06
2019-05-06T10:34:45.944Z,58.74
2019-05-06T10:37:30.151Z,57.35
2019-05-06T10:40:19.373Z,58.71
2019-05-06T10:42:56.727Z,58.19
2019-05-06T10:45:32.372Z,55.41
2019-05-06T10:48:02.461Z,50.99
2019-05-06T10:50:35.600Z,48.58
2019-05-06T10:53:19.546Z,51.60
2019-05-06T10:55:54.727Z,50.67
2019-05-06T10:58:23.757Z,50.72
2019-05-06T11:01:23.155Z,50.63
2019-05-06T11:03:52.742Z,51.36
2019-05-06T11:06:22.201Z,53.40
2019-05-06T11:08:52.562Z,52.01
2019-05-06T11:11:32.723Z,52.06
2019-05-06T11:13:52.556Z,54.88
2019-05-06T11:16:23.680Z,55.54
2019-05-06T11:18:53.946Z,56.76
2019-05-06T11:21:23.013Z,57.15
2019-05-06T11:23:52.793Z,57.33
2019-05-06T11:26:23.689Z,56.72
2019-05-06T11:28:56.290Z,55.01
2019-05-06T11:31:56.595Z,53.56
2019-05-06T11:34:44.980Z,54.46
2019-05-06T11:37:45.369Z,54.92
2019-05-06T11:40:02.748Z,54.70
2019-05-06T11:42:35.803Z,54.73
2019-05-06T11:45:04.934Z,55.97
2019-05-06T11:47:35.514Z,55.18
2019-05-06T11:50:07.646Z,53.81
2019-05-06T11:52:36.739Z,54.61
2019-05-06T11:55:06.463Z,56.60
2019-05-06T11:57:38.059Z,56.02
2019-05-06T12:00:12.519Z,56.70
2019-05-06T12:02:44.521Z,57.48
2019-05-06T12:05:12.352Z,57.05
2019-05-06T12:07:44.907Z,59.53
2019-05-06T12:10:13.041Z,60.26
2019-05-06T12:12:42.647Z,61.03
2019-05-06T12:15:12.714Z,61.03
2019-05-06T12:17:44.351Z,61.79
2019-05-06T12:20:13.746Z,61.75
2019-05-06T12:22:44.001Z,62.80
2019-05-06T12:25:15.410Z,61.12
2019-05-06T12:27:44.671Z,63.02
2019-05-06T12:30:15.733Z,63.32
2019-05-06T12:33:04.454Z,65.16
2019-05-06T12:35:35.660Z,66.43
2019-05-06T12:38:24.916Z,69.46
2019-05-06T12:40:42.740Z,67.90
2019-05-06T12:43:30.440Z,67.90
2019-05-06T12:46:13.511Z,68.33
2019-05-06T12:48:44.124Z,68.42
2019-05-06T12:51:13.333Z,68.05
2019-05-06T12:53:42.929Z,68.64
2019-05-06T12:56:12.477Z,68.23
2019-05-06T12:58:44.005Z,69.27
2019-05-06T13:01:15.356Z,69.14
2019-05-06T13:03:45.997Z,66.79
2019-05-06T13:06:15.390Z,66.79
2019-05-06T13:08:56.529Z,66.85
2019-05-06T13:11:15.234Z,66.68
2019-05-06T13:13:56.431Z,65.20
2019-05-06T13:16:15.726Z,64.55
2019-05-06T13:18:48.506Z,63.86
2019-05-06T13:21:17.266Z,63.86
2019-05-06T13:23:50.264Z,61.27
2019-05-06T13:26:22.116Z,60.78
2019-05-06T13:28:54.936Z,59.65
2019-05-06T13:31:25.495Z,59.53
2019-05-06T13:33:57.678Z,57.88
2019-05-06T13:36:27.095Z,56.73
2019-05-06T13:39:13.502Z,57.02
2019-05-06T13:41:32.703Z,56.88
2019-05-06T13:44:17.431Z,57.38
2019-05-06T13:46:55.782Z,59.70
2019-05-06T13:49:52.052Z,58.09
2019-05-06T13:52:24.268Z,57.26
2019-05-06T13:54:53.396Z,56.81
2019-05-06T13:57:22.527Z,58.30
2019-05-06T13:59:53.681Z,57.38
2019-05-06T14:02:45.816Z,58.99
2019-05-06T14:05:15.522Z,57.14
2019-05-06T14:07:45.144Z,55.94
2019-05-06T14:10:15.915Z,56.73
2019-05-06T14:12:44.993Z,57.55
2019-05-06T14:15:14.922Z,57.19
2019-05-06T14:17:44.015Z,57.85
2019-05-06T14:20:14.043Z,58.65
2019-05-06T14:22:43.988Z,59.87
2019-05-06T14:25:33.192Z,56.57
2019-05-06T14:28:19.739Z,57.17
2019-05-06T14:31:04.220Z,58.33
2019-05-06T14:33:34.612Z,56.94
2019-05-06T14:36:05.526Z,57.11
2019-05-06T14:38:37.666Z,56.46
2019-05-06T14:41:25.922Z,56.37
2019-05-06T14:43:51.629Z,56.01
2019-05-06T14:46:22.871Z,54.51
2019-05-06T14:48:53.623Z,53.59
2019-05-06T14:51:22.620Z,54.91
2019-05-06T14:53:52.975Z,54.85
2019-05-06T14:56:35.624Z,54.12
2019-05-06T14:59:07.885Z,52.91
2019-05-06T15:01:38.872Z,52.88
2019-05-06T15:04:08.334Z,51.26
2019-05-06T15:06:37.336Z,52.51
2019-05-06T15:09:13.406Z,50.54
2019-05-06T15:11:43.388Z,48.16
2019-05-06T15:14:14.921Z,48.55
2019-05-06T15:16:43.953Z,48.89
2019-05-06T15:19:13.083Z,49.17
2019-05-06T15:21:42.797Z,48.68
2019-05-06T15:24:14.260Z,49.55
2019-05-06T15:26:44.302Z,50.13
2019-05-06T15:29:15.342Z,50.15
2019-05-06T15:32:02.364Z,49.98
2019-05-06T15:34:53.113Z,50.79
2019-05-06T15:37:26.993Z,50.91
2019-05-06T15:39:56.457Z,49.98
2019-05-06T15:42:28.495Z,50.77
2019-05-06T15:44:57.678Z,50.65
2019-05-06T15:47:27.335Z,52.49
2019-05-06T15:49:56.553Z,49.87
2019-05-06T15:52:25.889Z,53.49
2019-05-06T15:54:58.447Z,50.77
2019-05-06T15:57:27.535Z,52.04
2019-05-06T16:00:02.370Z,53.92
2019-05-06T16:02:34.308Z,53.16
2019-05-06T16:05:13.903Z,52.25
2019-05-06T16:07:39.075Z,54.32
2019-05-06T16:10:09.238Z,55.63
2019-05-06T16:12:38.401Z,54.72
2019-05-06T16:15:08.639Z,55.52
2019-05-06T16:17:37.681Z,55.38
2019-05-06T16:20:07.771Z,54.64
2019-05-06T16:22:37.396Z,53.72
2019-05-06T16:25:10.101Z,55.46
2019-05-06T16:27:43.834Z,54.59
2019-05-06T16:30:13.252Z,54.15
2019-05-06T16:32:42.739Z,56.01
2019-05-06T16:35:14.302Z,53.81
2019-05-06T16:37:43.157Z,55.55
2019-05-06T16:40:12.499Z,55.76
2019-05-06T16:42:45.781Z,54.46
2019-05-06T16:45:14.495Z,53.84
2019-05-06T16:47:44.844Z,53.23
2019-05-06T16:50:19.129Z,53.56
2019-05-06T16:52:48.548Z,53.22
2019-05-06T16:55:24.443Z,54.43
2019-05-06T16:58:02.374Z,56.17
2019-05-06T17:00:33.613Z,54.64
2019-05-06T17:03:11.704Z,56.21
2019-05-06T17:05:59.556Z,56.19
2019-05-06T17:08:28.909Z,56.04
2019-05-06T17:10:59.272Z,56.07
2019-05-06T17:13:28.303Z,56.24
2019-05-06T17:15:57.384Z,57.40
2019-05-06T17:18:26.813Z,56.55
2019-05-06T17:20:56.279Z,57.28
2019-05-06T17:23:26.437Z,57.66
2019-05-06T17:25:55.393Z,58.49
2019-05-06T17:28:43.776Z,59.29
2019-05-06T17:31:27.925Z,59.04
2019-05-06T17:33:59.523Z,58.47
2019-05-06T17:36:32.428Z,58.35
2019-05-06T17:39:02.670Z,59.35
2019-05-06T17:41:44.565Z,61.52
2019-05-06T17:44:04.418Z,61.52
2019-05-06T17:46:38.885Z,58.93
2019-05-06T17:49:15.095Z,59.85
2019-05-06T17:52:05.934Z,60.08
2019-05-06T17:54:35.317Z,60.53
2019-05-06T17:57:04.813Z,59.89
2019-05-06T17:59:37.291Z,59.89
2019-05-06T18:02:10.225Z,62.13
2019-05-06T18:04:39.545Z,60.81
2019-05-06T18:07:08.578Z,60.02
2019-05-06T18:09:37.843Z,62.98
2019-05-06T18:12:08.445Z,63.95
2019-05-06T18:14:37.803Z,63.95
2019-05-06T18:17:07.426Z,64.44
2019-05-06T18:19:38.664Z,64.37
2019-05-06T18:22:07.807Z,63.13
2019-05-06T18:24:36.834Z,63.83
2019-05-06T18:27:06.213Z,63.54
2019-05-06T18:29:35.243Z,62.82
2019-05-06T18:32:04.725Z,63.17
2019-05-06T18:34:36.928Z,63.56
2019-05-06T18:37:05.954Z,65.95
2019-05-06T18:39:35.089Z,65.39
2019-05-06T18:42:15.490Z,66.65
2019-05-06T18:44:38.287Z,66.74
2019-05-06T18:47:07.371Z,66.52
2019-05-06T18:49:36.484Z,66.75
2019-05-06T18:52:05.861Z,62.81
2019-05-06T18:54:35.515Z,64.09
2019-05-06T18:57:07.404Z,65.82
2019-05-06T18:59:38.000Z,65.82
2019-05-06T19:02:10.200Z,66.23
2019-05-06T19:04:49.312Z,64.39
2019-05-06T19:07:18.398Z,67.36
2019-05-06T19:09:52.641Z,68.05
2019-05-06T19:12:36.784Z,68.54
2019-05-06T19:15:03.134Z,66.72
2019-05-06T19:17:33.504Z,68.90
2019-05-06T19:20:02.735Z,69.63
2019-05-06T19:22:32.846Z,69.82
2019-05-06T19:25:06.125Z,70.34
2019-05-06T19:27:37.701Z,70.18
2019-05-06T19:30:08.167Z,70.35
2019-05-06T19:32:38.764Z,70.89
2019-05-06T19:35:08.776Z,70.83
2019-05-06T19:37:41.749Z,70.56
2019-05-06T19:40:12.136Z,70.84
2019-05-06T19:42:47.146Z,71.25
2019-05-06T19:45:13.006Z,71.01
2019-05-06T19:47:42.657Z,70.96
2019-05-06T19:50:11.785Z,70.97
2019-05-06T19:52:42.206Z,71.44
2019-05-06T19:55:14.521Z,71.64
2019-05-06T19:57:43.906Z,71.83
2019-05-06T20:00:16.093Z,71.68
2019-05-06T20:02:45.255Z,72.57
2019-05-06T20:05:23.987Z,71.35
2019-05-06T20:08:09.305Z,72.03
2019-05-06T20:10:56.599Z,72.37
2019-05-06T20:13:28.243Z,72.41
2019-05-06T20:15:57.008Z,71.73
2019-05-06T20:18:26.037Z,71.63
2019-05-06T20:20:55.055Z,72.62
2019-05-06T20:23:24.467Z,73.65
2019-05-06T20:25:56.499Z,72.86
2019-05-06T20:28:26.000Z,73.00
2019-05-06T20:30:55.113Z,73.26
2019-05-06T20:33:24.161Z,72.53
2019-05-06T20:35:53.867Z,73.23
2019-05-06T20:38:25.631Z,73.31
2019-05-06T20:40:54.951Z,73.95
2019-05-06T20:43:24.222Z,73.44
2019-05-06T20:45:53.360Z,74.20
2019-05-06T20:48:23.530Z,74.58
2019-05-06T20:50:52.853Z,74.76
2019-05-06T20:53:23.205Z,75.45
2019-05-06T20:55:53.188Z,75.23
2019-05-06T20:58:23.244Z,75.25
2019-05-06T21:00:55.743Z,75.17
2019-05-06T21:03:25.489Z,75.08
2019-05-06T21:05:54.629Z,75.36
2019-05-06T21:08:24.456Z,75.51
2019-05-06T21:10:53.889Z,76.04
2019-05-06T21:13:31.834Z,76.34
2019-05-06T21:18:29.072Z,76.25
2019-05-06T21:20:58.938Z,77.38
2019-05-06T21:23:33.268Z,77.70
2019-05-06T21:26:03.326Z,77.83
2019-05-06T21:28:32.714Z,76.38
2019-05-06T21:31:03.420Z,76.22
2019-05-06T21:33:32.997Z,75.23
2019-05-06T21:36:03.026Z,75.05
2019-05-06T21:38:35.103Z,75.36
2019-05-06T21:41:05.323Z,75.67
2019-05-06T21:43:46.383Z,75.52
2019-05-06T21:46:08.325Z,75.84
2019-05-06T21:48:37.933Z,74.95
2019-05-06T21:51:06.967Z,75.31
2019-05-06T21:53:36.340Z,75.46
2019-05-06T21:56:08.498Z,75.89
2019-05-06T21:58:37.547Z,76.83
2019-05-06T22:01:07.394Z,77.53
2019-05-06T22:03:38.661Z,78.17
2019-05-06T22:06:07.893Z,78.54
2019-05-06T22:08:37.502Z,78.92
2019-05-06T22:11:07.624Z,78.86
2019-05-06T22:13:38.814Z,79.08
2019-05-06T22:16:08.780Z,79.16
2019-05-06T22:18:38.580Z,79.00
2019-05-06T22:21:15.532Z,77.44
2019-05-06T22:23:58.673Z,76.70
2019-05-06T22:26:28.537Z,76.07
2019-05-06T22:29:02.047Z,76.20
2019-05-06T22:31:33.038Z,76.28
2019-05-06T22:34:02.321Z,76.77
2019-05-06T22:36:40.634Z,76.75
2019-05-06T22:39:06.783Z,77.30
2019-05-06T22:41:35.955Z,78.46
2019-05-06T22:44:13.303Z,79.08
2019-05-06T22:46:35.698Z,79.86
2019-05-06T22:49:05.006Z,80.81
2019-05-06T22:51:36.572Z,82.15
2019-05-06T22:54:06.442Z,82.62
2019-05-06T22:56:35.840Z,82.03
2019-05-06T22:59:04.950Z,82.29
2019-05-06T23:02:08.144Z,82.90
2019-05-06T23:04:38.058Z,82.35
2019-05-06T23:07:11.124Z,83.18
2019-05-06T23:09:42.555Z,83.12
2019-05-06T23:12:14.466Z,82.70
2019-05-06T23:14:43.596Z,82.79
2019-05-06T23:17:12.913Z,82.79
2019-05-06T23:19:42.962Z,83.20
2019-05-06T23:22:13.165Z,84.22
2019-05-06T23:24:42.522Z,85.03
2019-05-06T23:27:12.692Z,84.84
2019-05-06T23:29:45.007Z,84.20
2019-05-06T23:32:15.784Z,83.82
2019-05-06T23:34:47.282Z,83.96
2019-05-06T23:37:23.845Z,84.12
2019-05-06T23:40:33.156Z,84.02
2019-05-06T23:43:38.330Z,83.61
2019-05-06T23:46:43.186Z,83.80
2019-05-06T23:49:49.296Z,83.51
2019-05-06T23:52:54.242Z,84.07
2019-05-06T23:56:02.807Z,83.81
2019-05-06T23:58:32.293Z,84.12
